createdAt,value
2018-11-21T00:00:55.636Z,94.80
2018-11-21T00:03:27.778Z,94.80
2018-11-21T00:05:57.009Z,94.90
2018-11-21T00:08:26.212Z,95.00
2018-11-21T00:10:55.984Z,95.40
2018-11-21T00:13:28.509Z,95.30
2018-11-21T00:15:57.882Z,94.80
2018-11-21T00:18:27.902Z,94.80
2018-11-21T00:20:57.215Z,94.80
2018-11-21T00:23:26.512Z,94.80
2018-11-21T00:26:00.933Z,94.60
2018-11-21T00:28:30.208Z,95.10
2018-11-21T00:30:59.382Z,95.10
2018-11-21T00:33:32.084Z,95.00
2018-11-21T00:36:01.307Z,95.20
2018-11-21T00:38:32.250Z,95.30
2018-11-21T00:41:02.143Z,95.60
2018-11-21T00:43:31.357Z,95.50
2018-11-21T00:46:00.550Z,95.50
2018-11-21T00:48:33.126Z,95.30
2018-11-21T00:51:02.735Z,95.40
2018-11-21T00:53:34.805Z,95.40
2018-11-21T00:56:04.206Z,95.30
2018-11-21T00:58:33.806Z,95.10
2018-11-21T01:01:03.247Z,95.30
2018-11-21T01:03:32.736Z,95.50
2018-11-21T01:06:01.933Z,95.50
2018-11-21T01:08:31.228Z,95.90
2018-11-21T01:11:00.579Z,95.70
2018-11-21T01:13:31.190Z,95.40
2018-11-21T01:16:08.073Z,95.40
2018-11-21T01:18:36.487Z,95.50
2018-11-21T01:21:07.042Z,94.90
2018-11-21T01:23:37.252Z,94.90
2018-11-21T01:26:07.453Z,94.60
2018-11-21T01:28:37.009Z,94.90
2018-11-21T01:31:06.395Z,95.00
2018-11-21T01:33:35.555Z,95.40
2018-11-21T01:36:08.735Z,95.00
2018-11-21T01:38:37.454Z,95.10
2018-11-21T01:41:12.317Z,95.10
2018-11-21T01:43:41.686Z,94.70
2018-11-21T01:46:10.932Z,94.60
2018-11-21T01:48:40.123Z,94.60
2018-11-21T01:51:09.496Z,94.80
2018-11-21T01:53:41.827Z,94.60
2018-11-21T01:56:10.985Z,94.40
2018-11-21T01:58:43.223Z,94.60
2018-11-21T02:01:12.350Z,94.80
2018-11-21T02:03:41.568Z,94.90
2018-11-21T02:06:10.997Z,94.60
2018-11-21T02:08:40.570Z,94.80
2018-11-21T02:11:09.873Z,94.80
2018-11-21T02:13:39.194Z,94.60
2018-11-21T02:16:09.109Z,94.90
2018-11-21T02:18:39.139Z,94.80
2018-11-21T02:21:09.801Z,94.80
2018-11-21T02:23:39.398Z,94.80
2018-11-21T02:26:08.748Z,94.80
2018-11-21T02:28:38.050Z,94.80
2018-11-21T02:31:07.662Z,94.70
2018-11-21T02:33:36.853Z,94.40
2018-11-21T02:36:06.461Z,94.60
2018-11-21T02:38:35.777Z,94.60
2018-11-21T02:41:06.395Z,94.30
2018-11-21T02:43:35.988Z,94.60
2018-11-21T02:46:05.522Z,94.70
2018-11-21T02:48:34.902Z,94.80
2018-11-21T02:51:04.231Z,94.50
2018-11-21T02:53:33.416Z,94.30
2018-11-21T02:56:05.413Z,94.00
2018-11-21T02:58:35.495Z,94.20
2018-11-21T03:01:04.856Z,94.30
2018-11-21T03:03:34.014Z,94.80
2018-11-21T03:06:03.282Z,94.80
2018-11-21T03:08:32.811Z,94.90
2018-11-21T03:11:02.223Z,94.60
2018-11-21T03:13:31.714Z,94.20
2018-11-21T03:16:00.904Z,94.10
2018-11-21T03:18:30.099Z,94.30
2018-11-21T03:20:59.794Z,94.40
2018-11-21T03:23:29.541Z,94.50
2018-11-21T03:25:58.741Z,93.90
2018-11-21T03:28:28.109Z,94.30
2018-11-21T03:30:57.284Z,94.50
2018-11-21T03:33:26.824Z,94.80
2018-11-21T03:35:56.197Z,94.80
2018-11-21T03:38:25.465Z,94.70
2018-11-21T03:40:54.754Z,94.30
2018-11-21T03:43:24.503Z,94.50
2018-11-21T03:45:53.654Z,94.80
2018-11-21T03:48:22.844Z,94.70
2018-11-21T03:50:52.269Z,94.60
2018-11-21T03:53:21.449Z,94.50
2018-11-21T03:55:50.748Z,94.40
2018-11-21T03:58:20.758Z,94.40
2018-11-21T04:00:49.997Z,94.30
2018-11-21T04:03:19.183Z,94.30
2018-11-21T04:05:48.571Z,94.40
2018-11-21T04:08:18.087Z,94.00
2018-11-21T04:10:47.273Z,94.30
2018-11-21T04:13:16.712Z,94.70
2018-11-21T04:15:45.885Z,94.70
2018-11-21T04:18:15.164Z,94.20
2018-11-21T04:20:44.498Z,94.20
2018-11-21T04:23:14.197Z,94.40
2018-11-21T04:25:43.498Z,94.60
2018-11-21T04:28:13.094Z,94.30
2018-11-21T04:30:42.296Z,94.40
2018-11-21T04:33:11.384Z,94.70
2018-11-21T04:35:40.886Z,94.30
2018-11-21T04:38:10.107Z,94.30
2018-11-21T04:40:39.614Z,94.30
2018-11-21T04:43:09.404Z,94.40
2018-11-21T04:45:38.572Z,94.20
2018-11-21T04:48:08.424Z,94.40
2018-11-21T04:50:37.820Z,94.40
2018-11-21T04:53:07.098Z,94.40
2018-11-21T04:55:36.729Z,94.20
2018-11-21T04:58:09.516Z,94.00
2018-11-21T05:00:38.632Z,94.00
2018-11-21T05:03:07.810Z,94.20
2018-11-21T05:05:37.089Z,94.20
2018-11-21T05:08:09.403Z,94.10
2018-11-21T05:10:38.702Z,93.80
2018-11-21T05:13:08.298Z,93.90
2018-11-21T05:15:37.730Z,94.30
2018-11-21T05:18:07.315Z,94.10
2018-11-21T05:20:36.780Z,93.80
2018-11-21T05:23:07.219Z,93.70
2018-11-21T05:25:36.466Z,93.80
2018-11-21T05:28:06.231Z,94.50
2018-11-21T05:30:35.459Z,94.60
2018-11-21T05:33:07.319Z,94.40
2018-11-21T05:35:37.020Z,94.60
2018-11-21T05:38:09.305Z,94.60
2018-11-21T05:40:40.432Z,94.00
2018-11-21T05:43:07.879Z,93.90
2018-11-21T05:45:37.136Z,93.80
2018-11-21T05:48:06.672Z,93.80
2018-11-21T05:50:39.968Z,93.90
2018-11-21T05:53:09.893Z,93.90
2018-11-21T05:55:39.555Z,93.60
2018-11-21T05:58:11.690Z,93.60
2018-11-21T06:00:40.938Z,93.80
2018-11-21T06:03:10.224Z,93.70
2018-11-21T06:05:40.205Z,93.70
2018-11-21T06:08:12.328Z,93.40
2018-11-21T06:10:43.224Z,93.70
2018-11-21T06:13:12.937Z,93.50
2018-11-21T06:15:42.005Z,93.20
2018-11-21T06:18:12.200Z,93.60
2018-11-21T06:20:45.261Z,93.70
2018-11-21T06:23:14.998Z,94.10
2018-11-21T06:25:47.643Z,93.50
2018-11-21T06:28:14.763Z,93.70
2018-11-21T06:30:44.085Z,94.10
2018-11-21T06:33:13.449Z,93.80
2018-11-21T06:35:42.782Z,93.80
2018-11-21T06:38:13.126Z,93.70
2018-11-21T06:40:42.992Z,93.70
2018-11-21T06:43:12.837Z,93.80
2018-11-21T06:45:43.792Z,93.90
2018-11-21T06:48:11.545Z,94.00
2018-11-21T06:50:42.480Z,93.80
2018-11-21T06:53:11.665Z,93.90
2018-11-21T06:55:41.190Z,93.60
2018-11-21T06:58:10.362Z,93.80
2018-11-21T07:00:39.601Z,94.10
2018-11-21T07:03:08.790Z,94.20
2018-11-21T07:05:38.156Z,94.20
2018-11-21T07:08:09.838Z,94.00
2018-11-21T07:10:39.171Z,93.80
2018-11-21T07:13:11.217Z,94.00
2018-11-21T07:15:39.893Z,94.40
2018-11-21T07:18:10.198Z,94.40
2018-11-21T07:20:42.972Z,93.90
2018-11-21T07:23:12.293Z,94.20
2018-11-21T07:25:41.402Z,93.90
2018-11-21T07:28:13.091Z,93.90
2018-11-21T07:30:40.416Z,94.00
2018-11-21T07:33:10.641Z,94.10
2018-11-21T07:35:41.235Z,93.80
2018-11-21T07:38:10.375Z,94.00
2018-11-21T07:40:39.669Z,93.90
2018-11-21T07:43:12.127Z,93.90
2018-11-21T07:45:43.093Z,94.10
2018-11-21T07:48:12.245Z,94.30
2018-11-21T07:50:44.662Z,94.30
2018-11-21T07:53:13.897Z,94.50
2018-11-21T07:55:43.138Z,94.40
2018-11-21T07:58:23.601Z,94.10
2018-11-21T08:01:01.999Z,94.30
2018-11-21T08:03:35.725Z,94.00
2018-11-21T08:06:10.680Z,94.00
2018-11-21T08:09:04.637Z,93.80
2018-11-21T08:11:52.879Z,93.80
2018-11-21T08:14:35.773Z,93.90
2018-11-21T08:17:30.997Z,94.20
2018-11-21T08:20:19.670Z,93.90
2018-11-21T08:23:10.776Z,93.90
2018-11-21T08:25:57.863Z,93.90
2018-11-21T08:28:33.064Z,93.80
2018-11-21T08:31:02.422Z,93.70
2018-11-21T08:33:34.132Z,93.50
2018-11-21T08:36:01.337Z,93.50
2018-11-21T08:38:30.531Z,93.40
2018-11-21T08:40:59.575Z,93.10
2018-11-21T08:43:28.758Z,93.30
2018-11-21T08:45:59.923Z,93.20
2018-11-21T08:48:27.510Z,92.90
2018-11-21T08:50:56.967Z,92.70
2018-11-21T08:53:26.453Z,92.70
2018-11-21T08:55:55.566Z,92.80
2018-11-21T08:58:27.243Z,92.90
2018-11-21T09:00:56.631Z,92.80
2018-11-21T09:03:25.694Z,92.40
2018-11-21T09:05:57.233Z,92.30
2018-11-21T09:08:26.926Z,92.40
2018-11-21T09:10:56.089Z,92.40
2018-11-21T09:13:25.485Z,92.20
2018-11-21T09:15:54.715Z,92.10
2018-11-21T09:18:29.732Z,92.00
2018-11-21T09:20:59.827Z,91.80
2018-11-21T09:23:28.942Z,91.90
2018-11-21T09:25:58.154Z,92.20
2018-11-21T09:28:27.435Z,92.20
2018-11-21T09:30:56.774Z,92.00
2018-11-21T09:33:26.371Z,91.80
2018-11-21T09:36:00.854Z,91.90
2018-11-21T09:38:29.960Z,91.60
2018-11-21T09:40:59.068Z,91.50
2018-11-21T09:43:28.365Z,91.50
2018-11-21T09:45:59.423Z,91.60
2018-11-21T09:48:28.480Z,91.10
2018-11-21T09:50:57.910Z,91.00
2018-11-21T09:53:29.369Z,91.30
2018-11-21T09:55:58.910Z,91.70
2018-11-21T09:58:30.086Z,91.30
2018-11-21T10:01:34.111Z,91.20
2018-11-21T10:04:03.417Z,90.50
2018-11-21T10:06:35.210Z,91.00
2018-11-21T10:09:13.733Z,90.20
2018-11-21T10:11:51.991Z,90.40
2018-11-21T10:14:17.394Z,90.50
2018-11-21T10:16:49.393Z,90.10
2018-11-21T10:19:21.016Z,90.10
2018-11-21T10:21:51.373Z,89.40
2018-11-21T10:24:23.403Z,89.70
2018-11-21T10:26:52.529Z,90.70
2018-11-21T10:29:21.736Z,90.50
2018-11-21T10:31:50.960Z,90.40
2018-11-21T10:34:20.238Z,90.20
2018-11-21T10:36:49.290Z,90.00
2018-11-21T10:39:18.669Z,90.10
2018-11-21T10:41:47.702Z,90.10
2018-11-21T10:44:17.356Z,90.30
2018-11-21T10:46:46.447Z,90.50
2018-11-21T10:49:15.338Z,90.40
2018-11-21T10:51:44.399Z,88.80
2018-11-21T10:54:13.745Z,89.50
2018-11-21T10:56:43.493Z,90.40
2018-11-21T10:59:12.561Z,88.80
2018-11-21T11:01:59.504Z,89.20
2018-11-21T11:04:38.465Z,89.00
2018-11-21T11:07:41.574Z,90.40
2018-11-21T11:10:32.120Z,89.10
2018-11-21T11:13:26.763Z,89.10
2018-11-21T11:16:13.816Z,88.40
2018-11-21T11:19:09.131Z,88.30
2018-11-21T11:22:11.227Z,88.90
2018-11-21T11:25:11.470Z,88.70
2018-11-21T11:27:59.593Z,88.90
2018-11-21T11:30:49.375Z,89.20
2018-11-21T11:33:49.913Z,89.80
2018-11-21T11:36:37.954Z,90.40
2018-11-21T11:39:38.800Z,90.20
2018-11-21T11:42:27.228Z,90.10
2018-11-21T11:45:18.523Z,88.80
2018-11-21T11:48:05.642Z,90.20
2018-11-21T11:50:53.465Z,89.80
2018-11-21T11:53:34.774Z,90.60
